MXGP 2016. Cairoli e Prado Garcia si aggiudicano le qualifiche ad Assen

MXGP 2016. Cairoli e Prado Garcia si aggiudicano le qualifiche ad Assen
Massimo Zanzani
All’ufficiale KTM il primo scontro MXGP della 16ª tappa iridata, che ha visto il papabile al titolo Gajser terminare 7°; problemi meccanici per Herlings che si ritira e lascia la vittoria della qualifica MX2 al compagno di squadra Prado
27 agosto 2016

Punti chiave

L’apertura di quella che può essere la tappa decisiva della stagione MXGP ha dato ragione a Tony Cairoli che ha dimostrato di trovarsi a suo perfetto agio sulla difficilissima pista di sabbia realizzata all’interno dell’autodromo di Assen.

Secondo nella manche cronometrata dietro al pilota di casa Glenn Coldenhoff, nella batteria selettiva il siciliano al primo giro ha passato il compagno di squadra olandese ed ha praticamente fatto gara a se in testa al gruppo sino al traguardo. Seconda piazza per la seconda guida KTM, protagonista anche della scorsa edizione con i colori Suzuki, che ha preceduto i belgi Clement Desalle e Jeremy Van Horebeek.

Partito 7°, Tim Gajser se l’è presa con filosofia per non incorrere in errori ed ha chiuso nella stessa posizione dopo una scivolata che ha annullato la rimonta di due posizioni che aveva fatto fino al 5° giro.

 

 

MX2

Dopo aver fatta sua la pole con 8 decimi di secondi in meno del connazionale Calvin Vlaanderen, a metà gara Jeffrey Herlings si è vista sfuggire una possibile vittoria dovuta al ritiro causato da problemi meccanici mentre era in scia al battistrada Jorge Prado che si è assicurato così la vittoria davanti ai due olandesi del team HSF Logistic Vlaanderen e Bogers. Bravo Michele Cervellin, che se l’è cavata egregiamente sulle infide e stressanti buche di sabbia chiudendo 11°; solo 19° invece Samuele Bernardini.

Con il 4° posto ottenuto al termine della prima manche WMX vinta dalla neo zelandese Courtney Duncan, Livia Lancelot si è aggiudicato il suo secondo titolo Mondiale femminile; seconda piazza per Kiara Fontanesi che in mattinata era stata la più veloce nei tempi cronometrati.

 

MXGP - Qualifying Race - Classification
Pos Nr Rider Nat. Fed. Bike Time laps Diff. First Diff. Prev. Bestlaptime in lap Speed
1 222 Cairoli, Antonio ITA FMI KTM 24:04.630 14 0:00.000 0:00.000 1:34.966 3 56.8
2 259 Coldenhoff, Glenn NED KNMV KTM 24:18.750 14 0:14.120 0:14.120 1:38.647 3 54.7
3 25 Desalle, Clement BEL FMB Kawasaki 24:19.407 14 0:14.777 0:00.657 1:38.748 3 54.6
4 89 Van Horebeek, Jeremy BEL FMB Yamaha 24:27.060 14 0:22.430 0:07.653 1:39.057 3 54.5
5 911 Tixier, Jordi FRA FFM Kawasaki 24:35.414 14 0:30.784 0:08.354 1:39.913 6 54
6 7 Leok, Tanel EST EMF KTM 24:39.469 14 0:34.839 0:04.055 1:40.391 8 53.7
7 243 Gajser, Tim SLO AMZS Honda 24:40.104 14 0:35.474 0:00.635 1:39.120 6 54.4
8 21 Paulin, Gautier FRA MCM Honda 24:47.255 14 0:42.625 0:07.151 1:38.762 3 54.6
9 24 Simpson, Shaun GBR ACU KTM 24:49.093 14 0:44.463 0:01.838 1:38.995 8 54.5
10 17 Butron, Jose ESP RFME KTM 24:57.595 14 0:52.965 0:08.502 1:41.403 2 53.2
11 22 Strijbos, Kevin BEL FMB Suzuki 24:59.449 14 0:54.819 0:01.854 1:41.231 6 53.3
12 999 Goncalves, Rui POR FMP Husqvarna 25:09.085 14 1:04.455 0:09.636 1:42.502 5 52.6
13 12 Nagl, Maximilian GER DMSB Husqvarna 25:09.655 14 1:05.025 0:00.570 1:40.503 5 53.7
14 71 Graulus, Damon BEL FMB Honda 25:12.655 14 1:08.025 0:03.000 1:41.800 3 53
15 941 Satink, Rick NED KNMV Husqvarna 25:17.268 14 1:12.638 0:04.613 1:41.699 7 53

 

MX2 - Qualifying Race - Classification
Pos Nr Rider Nat. Fed. Bike Time laps Diff. First Diff. Prev. Bestlaptime in lap Speed
1 61 Prado Garcia, Jorge ESP RFME KTM 24:22.263 14 0:00.000 0:00.000 1:39.936 5 54
2 10 Vlaanderen, Calvin NED KNMV KTM 24:23.374 14 0:01.111 0:01.111 1:39.576 4 54.2
3 189 Bogers, Brian NED KNMV KTM 24:38.330 14 0:16.067 0:14.956 1:39.882 3 54
4 116 Kjer Olsen, Thomas DEN DMU Husqvarna 24:42.896 14 0:20.633 0:04.566 1:41.175 1 53.3
5 91 Seewer, Jeremy SUI FMS Suzuki 24:48.718 14 0:26.455 0:05.822 1:40.603 4 53.6
6 811 Sterry, Adam GBR ACU KTM 24:51.186 14 0:28.923 0:02.468 1:40.364 3 53.8
7 6 Paturel, Benoit FRA FFM Yamaha 24:52.920 14 0:30.657 0:01.734 1:41.818 4 53
8 98 Vaessen, Bas NED KNMV Suzuki 24:53.763 14 0:31.500 0:00.843 1:41.683 3 53.1
9 152 Petrov, Petar BUL QMMF Kawasaki 24:55.357 14 0:33.094 0:01.594 1:41.001 5 53.4
10 99 Anstie, Max GBR ACU Husqvarna 25:03.110 14 0:40.847 0:07.753 1:41.390 4 53.2
11 747 Cervellin, Michele ITA FMI Honda 25:05.645 14 0:43.382 0:02.535 1:42.114 3 52.8
12 959 Renaux, Maxime FRA FFM Yamaha 25:07.636 14 0:45.373 0:01.991 1:41.961 3 52.9
13 64 Covington, Thomas USA AMA Husqvarna 25:15.628 14 0:53.365 0:07.992 1:41.318 3 53.2
14 172 Van doninck, Brent BEL FMB Yamaha 25:33.876 14 1:11.613 0:18.248 1:41.683 3 53.1
15 95 Justs, Roberts LAT LAMSF KTM 25:35.348 14 1:13.085 0:01.472 1:43.687 3 52

Ultime da Motocross

Da Automoto.it

Caricamento commenti...